Time;durP1;ratioP1;P1;durP2;ratioP2;P2;SDS_P1;SDS_P2;PMS_P1;PMS_P2;Temp;Humidity;BMP_temperature;BMP_pressure;BME280_temperature;BME280_humidity;BME280_pressure;Samples;Min_cycle;Max_cycle;Signal;HPM_P1;HPM_P2
2023/07/14 00:01:21;;;;;;;10.73;7.60;;;16.50;99.90;;;;;;5092868;28;20075;-64
2023/07/14 00:03:48;;;;;;;14.55;7.32;;;16.50;99.90;;;;;;5093227;28;20051;-64
2023/07/14 00:06:15;;;;;;;11.55;7.05;;;16.50;99.90;;;;;;5093427;28;20086;-64
2023/07/14 00:08:41;;;;;;;12.13;7.97;;;16.40;99.90;;;;;;5093084;28;20447;-65
2023/07/14 00:11:13;;;;;;;13.32;8.05;;;16.40;99.90;;;;;;5093423;28;20040;-64
2023/07/14 00:13:39;;;;;;;10.95;7.18;;;16.50;99.90;;;;;;5092532;28;20040;-64
2023/07/14 00:16:15;;;;;;;14.88;7.47;;;16.40;99.90;;;;;;5093192;28;20036;-64
2023/07/14 00:18:41;;;;;;;11.38;7.28;;;16.50;99.90;;;;;;5092763;28;20042;-64
2023/07/14 00:21:25;;;;;;;10.82;7.05;;;16.50;99.90;;;;;;5094166;28;20044;-64
2023/07/14 00:23:57;;;;;;;9.15;7.30;;;16.40;99.90;;;;;;5091691;28;20443;-64
2023/07/14 00:26:22;;;;;;;11.43;7.75;;;16.40;99.90;;;;;;5093715;28;20036;-64
2023/07/14 00:28:49;;;;;;;11.68;7.35;;;16.50;99.90;;;;;;5093639;28;20089;-64
2023/07/14 00:31:17;;;;;;;12.80;7.00;;;16.40;99.90;;;;;;5091405;28;20052;-64
2023/07/14 00:33:46;;;;;;;10.90;7.60;;;16.50;99.90;;;;;;5092030;28;20392;-64
2023/07/14 00:36:12;;;;;;;13.15;7.60;;;16.50;99.90;;;;;;5076022;28;20392;-64
2023/07/14 00:38:39;;;;;;;11.52;7.35;;;16.50;99.90;;;;;;5093026;28;20039;-64
2023/07/14 00:41:14;;;;;;;11.70;7.63;;;16.50;99.90;;;;;;5092075;28;20052;-64
2023/07/14 00:43:40;;;;;;;11.00;7.45;;;16.50;99.90;;;;;;5075023;28;20085;-64
2023/07/14 00:46:05;;;;;;;11.85;7.57;;;16.50;99.90;;;;;;5092990;28;20043;-64
2023/07/14 00:48:32;;;;;;;10.68;7.28;;;16.50;99.90;;;;;;5091764;28;20054;-64
2023/07/14 00:51:14;;;;;;;11.40;8.57;;;16.50;99.90;;;;;;5091652;28;20081;-64
2023/07/14 00:53:43;;;;;;;17.02;9.90;;;16.50;99.90;;;;;;5091765;28;20079;-65
2023/07/14 00:56:14;;;;;;;10.27;7.65;;;16.40;99.90;;;;;;5091975;28;20036;-64
2023/07/14 00:58:47;;;;;;;11.85;7.97;;;16.50;99.90;;;;;;5091098;28;20176;-64
2023/07/14 01:01:21;;;;;;;12.25;8.30;;;16.50;99.90;;;;;;5093173;28;20040;-64
2023/07/14 01:03:51;;;;;;;14.10;9.30;;;16.50;99.90;;;;;;5091497;28;20055;-64
2023/07/14 01:06:23;;;;;;;15.63;8.38;;;16.50;99.90;;;;;;5090870;28;20044;-64
2023/07/14 01:08:51;;;;;;;17.35;9.43;;;16.50;99.90;;;;;;5091126;28;20055;-64
2023/07/14 01:11:20;;;;;;;15.27;10.05;;;16.50;99.90;;;;;;5092681;28;20492;-64
2023/07/14 01:13:46;;;;;;;12.50;9.20;;;16.50;99.90;;;;;;5090553;28;20067;-64
2023/07/14 01:16:15;;;;;;;17.60;8.90;;;16.50;99.90;;;;;;5092929;28;20395;-64
2023/07/14 01:18:43;;;;;;;12.85;8.82;;;16.50;99.90;;;;;;5090231;28;20497;-64
2023/07/14 01:21:11;;;;;;;15.93;8.90;;;16.40;99.90;;;;;;5090696;28;20048;-64
2023/07/14 01:23:53;;;;;;;16.48;10.80;;;16.50;99.90;;;;;;5074720;28;20053;-64
2023/07/14 01:26:47;;;;;;;13.45;8.52;;;16.40;99.90;;;;;;5091860;28;20047;-64
2023/07/14 01:29:13;;;;;;;13.63;9.15;;;16.40;99.90;;;;;;5091289;28;20051;-64
2023/07/14 01:31:39;;;;;;;15.80;9.93;;;16.40;99.90;;;;;;5091308;28;20040;-64
2023/07/14 01:34:05;;;;;;;11.45;9.32;;;16.40;99.90;;;;;;5090420;28;20939;-64
2023/07/14 01:36:32;;;;;;;14.95;8.82;;;16.40;99.90;;;;;;5092636;28;20388;-64
2023/07/14 01:38:57;;;;;;;14.50;8.95;;;16.30;99.90;;;;;;5092542;28;20424;-64
2023/07/14 01:41:23;;;;;;;10.82;9.18;;;16.30;99.90;;;;;;5090162;28;20036;-64
2023/07/14 01:43:49;;;;;;;13.20;9.48;;;16.30;99.90;;;;;;5090845;28;20036;-64
2023/07/14 01:46:19;;;;;;;13.55;9.27;;;16.30;99.90;;;;;;5091061;28;20461;-64
2023/07/14 01:48:57;;;;;;;12.60;9.20;;;16.30;99.90;;;;;;5090075;28;20068;-65
2023/07/14 01:51:26;;;;;;;11.63;8.88;;;16.30;99.90;;;;;;5090716;28;20125;-64
2023/07/14 01:54:38;;;;;;;13.95;9.88;;;16.30;99.90;;;;;;5090923;28;20522;-64
2023/07/14 01:57:12;;;;;;;14.45;9.98;;;16.30;99.90;;;;;;5065556;28;20052;-65
2023/07/14 01:59:41;;;;;;;12.07;8.77;;;16.20;99.90;;;;;;5091136;28;20477;-64
2023/07/14 02:02:18;;;;;;;16.17;9.63;;;16.20;99.90;;;;;;5090219;28;20044;-64
2023/07/14 02:04:46;;;;;;;11.70;9.23;;;16.20;99.90;;;;;;5090555;28;20044;-64
2023/07/14 02:07:14;;;;;;;13.98;9.73;;;16.10;99.90;;;;;;5092371;28;20053;-64
2023/07/14 02:09:41;;;;;;;13.95;9.38;;;16.10;99.90;;;;;;5091192;28;20430;-64
2023/07/14 02:12:14;;;;;;;13.93;10.95;;;16.10;99.90;;;;;;5090930;28;20044;-64
2023/07/14 02:14:52;;;;;;;17.08;10.20;;;16.10;99.90;;;;;;5090569;28;20114;-64
2023/07/14 02:17:30;;;;;;;12.02;9.68;;;16.00;99.90;;;;;;5072889;28;20044;-64
2023/07/14 02:19:58;;;;;;;15.77;9.45;;;16.00;99.90;;;;;;5092201;28;20448;-64
2023/07/14 02:22:25;;;;;;;18.83;10.35;;;16.00;99.90;;;;;;5124778;28;20040;-64
2023/07/14 02:24:52;;;;;;;14.38;9.77;;;16.00;99.90;;;;;;5091200;28;20043;-64
2023/07/14 02:27:18;;;;;;;13.10;9.35;;;16.00;99.90;;;;;;5090969;28;20405;-64
2023/07/14 02:29:45;;;;;;;11.35;8.55;;;16.00;99.90;;;;;;5091627;28;20122;-64
2023/07/14 02:32:16;;;;;;;11.70;8.85;;;16.00;99.90;;;;;;5094760;28;20036;-64
2023/07/14 02:34:50;;;;;;;13.75;9.55;;;15.90;99.90;;;;;;5094601;28;20071;-64
2023/07/14 02:37:41;;;;;;;14.40;8.68;;;15.90;99.90;;;;;;5095050;28;20040;-64
2023/07/14 02:40:08;;;;;;;12.93;9.15;;;15.90;99.90;;;;;;5094595;28;20098;-65
2023/07/14 02:42:39;;;;;;;14.43;9.32;;;15.90;99.90;;;;;;5094430;28;20048;-65
2023/07/14 02:45:05;;;;;;;16.88;8.90;;;15.90;99.90;;;;;;5076973;28;20404;-64
2023/07/14 02:47:35;;;;;;;12.98;8.57;;;15.80;99.90;;;;;;5094158;28;20126;-65
2023/07/14 02:50:01;;;;;;;11.32;7.97;;;15.80;99.90;;;;;;5077393;28;20087;-65
2023/07/14 02:52:27;;;;;;;12.13;8.80;;;15.80;99.90;;;;;;5094697;28;20043;-64
2023/07/14 02:54:53;;;;;;;13.45;8.65;;;15.80;99.90;;;;;;5093761;28;20548;-64
2023/07/14 02:57:18;;;;;;;14.85;9.43;;;15.80;99.90;;;;;;5093969;28;20032;-64
2023/07/14 02:59:44;;;;;;;14.35;9.00;;;15.70;99.90;;;;;;5076254;28;20078;-64
2023/07/14 03:02:10;;;;;;;12.00;8.27;;;15.70;99.90;;;;;;5094376;28;20033;-64
2023/07/14 03:04:36;;;;;;;16.20;9.40;;;15.70;99.90;;;;;;5093940;28;20476;-64
2023/07/14 03:07:02;;;;;;;11.93;8.23;;;15.70;99.90;;;;;;5094559;28;20032;-64
2023/07/14 03:09:28;;;;;;;15.60;8.27;;;15.70;99.90;;;;;;5076872;28;20032;-64
2023/07/14 03:11:54;;;;;;;13.50;8.45;;;15.60;99.90;;;;;;5092923;28;20039;-64
2023/07/14 03:14:20;;;;;;;12.15;8.50;;;15.60;99.90;;;;;;5093621;28;20043;-64
2023/07/14 03:16:45;;;;;;;13.00;8.45;;;15.50;99.90;;;;;;5093517;28;20050;-64
2023/07/14 03:19:11;;;;;;;12.27;8.50;;;15.50;99.90;;;;;;5076294;28;20032;-64
2023/07/14 03:21:38;;;;;;;12.05;8.02;;;15.50;99.90;;;;;;5093824;28;20082;-64
2023/07/14 03:24:05;;;;;;;13.95;7.97;;;15.50;99.90;;;;;;5094500;28;20040;-64
2023/07/14 03:26:31;;;;;;;14.82;9.35;;;15.50;99.90;;;;;;5092912;28;20044;-64
2023/07/14 03:28:57;;;;;;;13.35;8.27;;;15.50;99.90;;;;;;5093522;28;20097;-64
2023/07/14 03:31:23;;;;;;;12.90;8.52;;;15.50;99.90;;;;;;5094685;28;20036;-64
2023/07/14 03:33:49;;;;;;;12.48;8.32;;;15.50;99.90;;;;;;5092755;28;20040;-64
2023/07/14 03:36:16;;;;;;;15.63;9.13;;;15.50;99.90;;;;;;5094646;28;20453;-64
2023/07/14 03:38:44;;;;;;;13.30;7.80;;;15.50;99.90;;;;;;5094285;28;20036;-64
2023/07/14 03:41:15;;;;;;;13.27;8.82;;;15.40;99.90;;;;;;5092005;28;20040;-64
2023/07/14 03:43:40;;;;;;;12.50;8.25;;;15.40;99.90;;;;;;5094251;28;20040;-65
2023/07/14 03:46:07;;;;;;;15.50;8.57;;;15.40;99.90;;;;;;5094630;28;20051;-64
2023/07/14 03:48:33;;;;;;;13.73;9.05;;;15.40;99.90;;;;;;5093467;28;20527;-64
2023/07/14 03:51:00;;;;;;;15.18;8.80;;;15.40;99.90;;;;;;5093045;28;20100;-64
2023/07/14 03:53:26;;;;;;;12.38;8.13;;;15.40;99.90;;;;;;5092503;28;20110;-64
2023/07/14 03:55:52;;;;;;;11.75;7.72;;;15.40;99.90;;;;;;5092470;28;20081;-65
2023/07/14 03:58:21;;;;;;;14.10;7.93;;;15.40;99.90;;;;;;5127153;27;20485;-64
2023/07/14 04:00:47;;;;;;;13.35;7.72;;;15.40;99.90;;;;;;5094198;28;20385;-64
2023/07/14 04:03:12;;;;;;;14.57;8.55;;;15.40;99.90;;;;;;5092037;28;20051;-64
2023/07/14 04:05:38;;;;;;;15.02;8.20;;;15.40;99.90;;;;;;5110204;27;20521;-64
2023/07/14 04:08:04;;;;;;;13.48;7.75;;;15.40;99.90;;;;;;5126479;27;20248;-64
2023/07/14 04:10:30;;;;;;;12.60;7.97;;;15.40;99.90;;;;;;5075749;28;20081;-64
2023/07/14 04:12:57;;;;;;;13.55;8.35;;;15.40;99.90;;;;;;5092573;28;20085;-64
2023/07/14 04:15:23;;;;;;;13.82;8.27;;;15.40;99.90;;;;;;5092975;28;20032;-64
2023/07/14 04:17:49;;;;;;;11.77;6.70;;;15.40;99.90;;;;;;5092593;28;20508;-64
2023/07/14 04:20:15;;;;;;;12.80;6.68;;;15.40;99.90;;;;;;5093646;28;20089;-64
2023/07/14 04:22:41;;;;;;;14.45;7.65;;;15.40;99.90;;;;;;5092826;28;20046;-64
2023/07/14 04:25:09;;;;;;;11.40;7.18;;;15.50;99.90;;;;;;5092546;28;20087;-64
2023/07/14 04:27:36;;;;;;;13.18;6.97;;;15.50;99.90;;;;;;5092292;28;20052;-64
2023/07/14 04:30:04;;;;;;;11.75;6.80;;;15.50;99.90;;;;;;5092734;28;20442;-65
2023/07/14 04:32:30;;;;;;;14.18;6.50;;;15.50;99.90;;;;;;5093537;28;20047;-64
2023/07/14 04:34:56;;;;;;;11.50;6.72;;;15.50;99.90;;;;;;5075085;28;20539;-64
2023/07/14 04:37:22;;;;;;;10.38;6.78;;;15.60;99.90;;;;;;5092843;28;20092;-64
2023/07/14 04:39:48;;;;;;;10.80;6.45;;;15.60;99.90;;;;;;5092002;28;20032;-65
2023/07/14 04:42:13;;;;;;;13.00;6.95;;;15.60;99.90;;;;;;5092016;28;20044;-64
2023/07/14 04:44:39;;;;;;;9.85;6.38;;;15.60;99.90;;;;;;5092427;28;20036;-64
2023/07/14 04:47:06;;;;;;;12.10;6.57;;;15.70;99.90;;;;;;5093039;28;20107;-64
2023/07/14 04:49:31;;;;;;;11.63;6.38;;;15.70;99.90;;;;;;5075104;28;20051;-64
2023/07/14 04:51:57;;;;;;;9.85;6.13;;;15.70;99.90;;;;;;5090609;28;20048;-64
2023/07/14 04:54:23;;;;;;;13.50;7.05;;;15.80;99.90;;;;;;5091128;28;20040;-64
2023/07/14 04:56:50;;;;;;;12.73;6.30;;;15.80;99.90;;;;;;5091822;28;20127;-64
2023/07/14 04:59:16;;;;;;;12.48;6.07;;;15.80;99.90;;;;;;5091024;28;20040;-65
2023/07/14 05:01:42;;;;;;;12.10;6.47;;;15.90;99.90;;;;;;5091838;28;20047;-64
2023/07/14 05:04:07;;;;;;;15.48;6.90;;;15.90;99.90;;;;;;5093206;28;20044;-64
2023/07/14 05:06:33;;;;;;;9.68;6.70;;;15.90;99.90;;;;;;5092287;28;20036;-64
2023/07/14 05:08:59;;;;;;;9.77;5.53;;;16.00;99.90;;;;;;5074696;28;20158;-64
2023/07/14 05:11:26;;;;;;;9.75;6.35;;;16.00;99.90;;;;;;5090466;28;20040;-64
2023/07/14 05:13:52;;;;;;;11.25;5.97;;;16.10;99.90;;;;;;5074646;28;20040;-65
2023/07/14 05:16:18;;;;;;;8.52;5.32;;;16.20;99.90;;;;;;5092802;28;20042;-64
2023/07/14 05:18:45;;;;;;;12.88;5.90;;;16.30;99.90;;;;;;5091786;28;20055;-64
2023/07/14 05:21:12;;;;;;;11.10;5.93;;;16.40;99.90;;;;;;5091658;28;20110;-64
2023/07/14 05:23:37;;;;;;;11.43;5.88;;;16.40;99.90;;;;;;5091499;28;20073;-64
2023/07/14 05:26:03;;;;;;;11.27;6.22;;;16.50;99.90;;;;;;5091969;28;20040;-64
2023/07/14 05:28:29;;;;;;;9.35;5.13;;;16.60;99.90;;;;;;5091619;28;20131;-64
2023/07/14 05:30:55;;;;;;;10.35;5.07;;;16.70;99.90;;;;;;5092355;28;20523;-64
2023/07/14 05:33:21;;;;;;;9.63;4.53;;;16.80;99.90;;;;;;5091584;28;20033;-65
2023/07/14 05:35:48;;;;;;;9.60;5.07;;;16.90;99.90;;;;;;5091225;28;20051;-64
2023/07/14 05:38:14;;;;;;;8.95;4.88;;;16.90;99.90;;;;;;5091358;28;20058;-64
2023/07/14 05:40:40;;;;;;;14.57;5.13;;;17.00;99.90;;;;;;5091601;28;20032;-64
2023/07/14 05:43:06;;;;;;;8.80;4.68;;;17.10;99.90;;;;;;5091376;28;20036;-64
2023/07/14 05:45:31;;;;;;;10.32;5.32;;;17.20;99.90;;;;;;5091388;28;20051;-64
2023/07/14 05:47:57;;;;;;;9.95;4.57;;;17.30;99.90;;;;;;5124283;27;20051;-65
2023/07/14 05:50:23;;;;;;;10.23;4.97;;;17.40;99.90;;;;;;5090550;28;20048;-64
2023/07/14 05:52:48;;;;;;;6.88;4.25;;;17.50;99.90;;;;;;5092074;28;20050;-65
2023/07/14 05:55:14;;;;;;;8.85;4.93;;;17.60;99.90;;;;;;5124070;27;20047;-64
2023/07/14 05:57:40;;;;;;;11.43;5.05;;;17.60;99.90;;;;;;5125220;27;20078;-64
2023/07/14 06:00:13;;;;;;;9.95;4.82;;;17.70;99.90;;;;;;5125419;28;20540;-64
2023/07/14 06:02:46;;;;;;;10.90;5.03;;;17.80;99.90;;;;;;5090431;28;20067;-64
2023/07/14 06:05:12;;;;;;;8.40;4.50;;;17.90;99.90;;;;;;5091019;28;20054;-64
2023/07/14 06:07:38;;;;;;;9.50;4.97;;;18.00;99.90;;;;;;5124487;28;20036;-64
2023/07/14 06:10:05;;;;;;;8.93;4.47;;;18.10;99.90;;;;;;5073639;28;20093;-64
2023/07/14 06:12:32;;;;;;;8.10;4.10;;;18.20;99.90;;;;;;5073818;28;20040;-64
2023/07/14 06:14:58;;;;;;;7.78;3.80;;;18.30;99.90;;;;;;5089746;28;20044;-64
2023/07/14 06:17:23;;;;;;;9.45;4.13;;;18.30;99.90;;;;;;5124691;28;20100;-64
2023/07/14 06:19:49;;;;;;;10.52;4.95;;;18.40;99.90;;;;;;5091850;28;20028;-64
2023/07/14 06:22:15;;;;;;;10.40;4.32;;;18.40;99.90;;;;;;5090115;28;20123;-64
2023/07/14 06:24:41;;;;;;;8.55;3.90;;;18.50;99.90;;;;;;5091982;28;20493;-65
2023/07/14 06:27:07;;;;;;;10.65;4.43;;;18.50;99.90;;;;;;5074069;28;20071;-65
2023/07/14 06:29:34;;;;;;;10.02;4.60;;;18.50;99.90;;;;;;5072822;28;20075;-64
2023/07/14 06:32:00;;;;;;;10.10;4.72;;;18.60;99.90;;;;;;5090484;28;20052;-64
2023/07/14 06:34:26;;;;;;;8.75;4.47;;;18.50;99.90;;;;;;5090637;28;20140;-64
2023/07/14 06:36:52;;;;;;;14.43;5.03;;;18.60;99.90;;;;;;5091435;28;20028;-65
2023/07/14 06:39:19;;;;;;;12.15;4.70;;;18.60;99.90;;;;;;5090156;28;20071;-64
2023/07/14 06:41:46;;;;;;;11.05;5.00;;;18.70;99.90;;;;;;5091749;28;20162;-64
2023/07/14 06:44:12;;;;;;;8.20;4.43;;;18.60;99.90;;;;;;5089852;28;20109;-64
2023/07/14 06:46:38;;;;;;;11.15;4.78;;;18.70;99.90;;;;;;5090253;28;20101;-64
2023/07/14 06:49:03;;;;;;;8.15;4.45;;;18.70;99.90;;;;;;5090230;28;20059;-64
2023/07/14 06:51:30;;;;;;;10.48;4.78;;;18.80;99.90;;;;;;5089117;28;20093;-64
2023/07/14 06:53:56;;;;;;;9.95;4.05;;;18.80;99.90;;;;;;5090171;28;20036;-64
2023/07/14 06:56:22;;;;;;;13.43;5.20;;;18.80;99.90;;;;;;5091531;28;20051;-64
2023/07/14 06:58:48;;;;;;;11.52;4.88;;;18.90;99.90;;;;;;5083619;28;20036;-64
2023/07/14 07:01:16;;;;;;;10.77;4.93;;;18.90;99.90;;;;;;5087629;28;20056;-64
2023/07/14 07:03:43;;;;;;;8.85;4.32;;;18.90;99.90;;;;;;5070999;28;20060;-64
2023/07/14 07:06:09;;;;;;;9.93;4.70;;;19.00;99.90;;;;;;5087099;28;20048;-64
2023/07/14 07:08:35;;;;;;;10.15;4.80;;;19.10;99.90;;;;;;5087666;28;20052;-64
2023/07/14 07:11:01;;;;;;;9.77;4.13;;;19.10;99.90;;;;;;5086347;28;20085;-65
2023/07/14 07:13:27;;;;;;;7.78;4.13;;;19.20;99.90;;;;;;5087430;28;20036;-65
2023/07/14 07:15:53;;;;;;;8.63;4.32;;;19.20;99.90;;;;;;5086249;28;20510;-65
2023/07/14 07:18:24;;;;;;;8.43;4.55;;;19.30;99.90;;;;;;5107768;28;20043;-64
2023/07/14 07:20:51;;;;;;;10.88;4.40;;;19.40;99.90;;;;;;5100715;28;20157;-64
2023/07/14 07:23:18;;;;;;;8.00;3.92;;;19.40;99.90;;;;;;5092679;28;20446;-64
2023/07/14 07:25:52;;;;;;;8.90;4.30;;;19.40;99.90;;;;;;5090748;28;20048;-64
2023/07/14 07:28:18;;;;;;;15.23;5.22;;;19.50;99.90;;;;;;5092387;28;20062;-64
2023/07/14 07:30:45;;;;;;;9.05;4.82;;;19.60;99.90;;;;;;5091022;28;20048;-64
2023/07/14 07:33:12;;;;;;;13.65;5.47;;;19.70;99.90;;;;;;5091652;28;20054;-64
2023/07/14 07:35:40;;;;;;;9.32;4.80;;;19.70;99.90;;;;;;5074395;28;20051;-65
2023/07/14 07:38:10;;;;;;;10.10;4.70;;;19.80;99.90;;;;;;5091364;28;20036;-64
2023/07/14 07:40:37;;;;;;;11.73;5.70;;;19.80;99.90;;;;;;5090370;28;20075;-64
2023/07/14 07:43:03;;;;;;;9.68;4.97;;;19.90;99.90;;;;;;5091018;28;20046;-64
2023/07/14 07:45:29;;;;;;;9.55;5.00;;;19.80;99.90;;;;;;5090376;28;20051;-64
2023/07/14 07:47:55;;;;;;;9.45;6.13;;;19.80;99.90;;;;;;5089448;28;20127;-65
2023/07/14 07:50:21;;;;;;;10.00;5.32;;;19.90;99.90;;;;;;5090537;28;20496;-64
2023/07/14 07:52:48;;;;;;;8.90;5.95;;;19.90;99.90;;;;;;5090533;28;20035;-64
2023/07/14 07:55:13;;;;;;;11.75;5.72;;;20.00;99.90;;;;;;5072886;28;20040;-64
2023/07/14 07:57:40;;;;;;;10.95;5.80;;;20.10;99.90;;;;;;5073127;28;20062;-64
2023/07/14 08:00:07;;;;;;;8.77;4.13;;;20.10;99.90;;;;;;5072102;28;20051;-64
2023/07/14 08:02:35;;;;;;;9.98;5.28;;;20.20;99.90;;;;;;5089976;28;20044;-64
2023/07/14 08:05:02;;;;;;;11.27;5.72;;;20.20;99.90;;;;;;5090929;28;20133;-64
2023/07/14 08:07:28;;;;;;;9.95;4.13;;;20.20;99.90;;;;;;5089352;28;20040;-64
2023/07/14 08:09:53;;;;;;;8.95;4.47;;;20.20;99.90;;;;;;5090635;28;20054;-63
2023/07/14 08:12:19;;;;;;;7.88;3.90;;;20.10;99.90;;;;;;5090339;28;20040;-64
2023/07/14 08:14:56;;;;;;;7.13;3.70;;;20.10;99.90;;;;;;5123219;27;20082;-64
2023/07/14 08:17:24;;;;;;;7.10;4.25;;;20.10;99.90;;;;;;5090732;28;20047;-63
2023/07/14 08:19:50;;;;;;;7.68;4.05;;;20.20;99.90;;;;;;5089643;28;20085;-64
2023/07/14 08:22:16;;;;;;;10.25;4.25;;;20.30;99.90;;;;;;5088624;28;20048;-63
2023/07/14 08:24:42;;;;;;;6.72;3.70;;;20.40;99.90;;;;;;5089286;28;20137;-64
2023/07/14 08:27:08;;;;;;;6.78;3.33;;;20.40;99.90;;;;;;5090764;28;20086;-63
2023/07/14 08:29:34;;;;;;;7.50;3.53;;;20.50;99.90;;;;;;5089179;28;20449;-63
2023/07/14 08:32:00;;;;;;;7.07;3.28;;;20.50;99.90;;;;;;5089851;28;20055;-64
2023/07/14 08:34:27;;;;;;;6.32;3.70;;;20.50;99.90;;;;;;5090123;28;20036;-63
2023/07/14 08:36:53;;;;;;;6.68;3.38;;;20.50;99.90;;;;;;5087956;28;20131;-64
2023/07/14 08:39:19;;;;;;;8.25;3.85;;;20.50;99.90;;;;;;5091015;28;20036;-63
2023/07/14 08:41:46;;;;;;;10.50;3.92;;;20.70;99.90;;;;;;5089622;28;20451;-64
2023/07/14 08:44:40;;;;;;;7.63;3.88;;;20.70;99.90;;;;;;5090217;28;20047;-64
2023/07/14 08:47:09;;;;;;;7.25;3.70;;;20.80;99.90;;;;;;5086015;28;20049;-63
2023/07/14 08:49:48;;;;;;;7.47;3.45;;;20.90;99.90;;;;;;5087136;28;20135;-64
2023/07/14 08:52:25;;;;;;;9.55;4.15;;;20.90;99.90;;;;;;5089094;28;20520;-63
2023/07/14 08:54:54;;;;;;;6.45;3.40;;;20.80;99.90;;;;;;5090243;28;20038;-63
2023/07/14 08:57:23;;;;;;;6.03;3.17;;;20.90;99.90;;;;;;5089468;28;20036;-63
2023/07/14 08:59:59;;;;;;;6.07;3.50;;;21.00;99.90;;;;;;5089041;28;20077;-64
2023/07/14 09:02:56;;;;;;;8.25;3.47;;;21.20;99.90;;;;;;5088381;28;20423;-63
2023/07/14 09:05:27;;;;;;;12.73;3.83;;;21.30;99.90;;;;;;5110511;27;20036;-63
2023/07/14 09:07:55;;;;;;;5.93;3.45;;;21.10;99.90;;;;;;5114746;27;20048;-63
2023/07/14 09:10:39;;;;;;;7.00;3.30;;;21.00;99.90;;;;;;5073311;28;20105;-63
2023/07/14 09:13:15;;;;;;;7.22;3.17;;;21.00;99.90;;;;;;5075034;28;20119;-63
2023/07/14 09:15:41;;;;;;;6.97;3.38;;;21.10;99.90;;;;;;5091126;28;20115;-63
2023/07/14 09:18:32;;;;;;;7.07;3.42;;;21.20;99.90;;;;;;5090663;28;20079;-63
2023/07/14 09:21:13;;;;;;;7.28;3.42;;;21.40;99.90;;;;;;5089997;28;20076;-63
2023/07/14 09:24:01;;;;;;;8.35;3.13;;;21.60;99.90;;;;;;5089292;28;20041;-63
2023/07/14 09:26:46;;;;;;;6.95;3.25;;;21.70;99.90;;;;;;5077067;28;20493;-62
2023/07/14 09:29:27;;;;;;;5.88;2.80;;;21.70;99.90;;;;;;5092430;28;20050;-62
2023/07/14 09:32:01;;;;;;;5.55;2.38;;;21.50;99.90;;;;;;5090226;28;20044;-62
2023/07/14 09:34:38;;;;;;;6.32;3.10;;;21.40;99.90;;;;;;5091030;28;20766;-62
2023/07/14 09:37:30;;;;;;;7.40;2.67;;;21.40;99.90;;;;;;5090017;28;20042;-63
2023/07/14 09:40:10;;;;;;;8.50;3.03;;;21.50;99.90;;;;;;5087083;28;20044;-64
2023/07/14 09:42:39;;;;;;;5.45;2.40;;;21.60;99.90;;;;;;5074060;28;20392;-63
2023/07/14 09:45:20;;;;;;;7.38;3.20;;;21.80;99.90;;;;;;5092609;28;20124;-62
2023/07/14 09:47:51;;;;;;;9.07;2.80;;;21.80;99.90;;;;;;5090521;28;20063;-62
2023/07/14 09:50:18;;;;;;;8.63;3.22;;;21.80;99.90;;;;;;5091178;28;20052;-62
2023/07/14 09:52:52;;;;;;;6.82;3.10;;;22.00;99.90;;;;;;5090289;28;20047;-62
2023/07/14 09:55:19;;;;;;;9.82;3.55;;;22.00;99.90;;;;;;5090134;28;20426;-61
2023/07/14 09:57:56;;;;;;;5.63;2.80;;;22.10;99.90;;;;;;5091139;28;20393;-61
2023/07/14 10:00:25;;;;;;;7.38;3.30;;;22.20;99.90;;;;;;5073362;28;20061;-61
2023/07/14 10:03:17;;;;;;;8.45;2.83;;;22.10;99.90;;;;;;5090902;28;20069;-61
2023/07/14 10:05:52;;;;;;;7.50;3.33;;;22.10;99.70;;;;;;5090161;28;20044;-62
2023/07/14 10:08:44;;;;;;;6.07;3.08;;;22.10;99.90;;;;;;5090062;28;20044;-61
2023/07/14 10:11:28;;;;;;;6.47;2.50;;;22.20;99.90;;;;;;5074834;28;20119;-62
2023/07/14 10:14:05;;;;;;;5.47;2.88;;;22.10;99.80;;;;;;5090297;28;20132;-62
2023/07/14 10:16:32;;;;;;;7.32;3.08;;;22.00;99.80;;;;;;5090590;28;20036;-62
2023/07/14 10:19:14;;;;;;;5.93;2.72;;;22.00;99.90;;;;;;5091050;28;20051;-63
2023/07/14 10:21:57;;;;;;;6.60;2.80;;;22.00;99.10;;;;;;5091358;28;20038;-62
2023/07/14 10:24:24;;;;;;;7.65;2.97;;;22.00;99.20;;;;;;5092111;28;20051;-62
2023/07/14 10:27:05;;;;;;;5.93;2.75;;;22.00;99.50;;;;;;5074163;28;20066;-62
2023/07/14 10:29:47;;;;;;;6.85;3.10;;;22.30;99.70;;;;;;5091064;28;20040;-62
2023/07/14 10:32:35;;;;;;;9.30;3.92;;;22.60;99.90;;;;;;5124815;28;20051;-62
2023/07/14 10:35:13;;;;;;;8.68;3.42;;;22.70;99.20;;;;;;5090260;28;20052;-62
2023/07/14 10:37:56;;;;;;;9.65;3.60;;;22.60;99.90;;;;;;5090129;28;20070;-62
2023/07/14 10:40:29;;;;;;;9.23;3.47;;;22.60;99.90;;;;;;5090227;28;20547;-62
2023/07/14 10:43:08;;;;;;;7.72;3.72;;;22.30;99.90;;;;;;5089613;28;20059;-62
2023/07/14 10:45:37;;;;;;;9.05;3.90;;;22.10;99.90;;;;;;5091747;28;20123;-62
2023/07/14 10:48:06;;;;;;;8.40;3.65;;;22.00;99.90;;;;;;5091266;28;20051;-62
2023/07/14 10:50:32;;;;;;;7.85;4.10;;;22.10;99.90;;;;;;5092143;28;20044;-62
2023/07/14 10:53:20;;;;;;;7.72;3.97;;;22.10;99.90;;;;;;5094325;28;20047;-62
2023/07/14 10:55:48;;;;;;;6.32;3.10;;;22.10;99.90;;;;;;5094312;28;20036;-62
2023/07/14 10:58:21;;;;;;;7.38;4.03;;;22.40;99.90;;;;;;5094042;28;20040;-62
2023/07/14 11:00:53;;;;;;;5.55;3.15;;;22.60;99.90;;;;;;5095869;28;20044;-62
2023/07/14 11:03:24;;;;;;;7.72;3.53;;;22.70;99.70;;;;;;5093454;28;20040;-62
2023/07/14 11:05:56;;;;;;;8.73;4.22;;;22.80;99.20;;;;;;5094095;28;20052;-62
2023/07/14 11:08:28;;;;;;;7.80;3.70;;;22.80;98.90;;;;;;5094066;28;20449;-63
2023/07/14 11:11:20;;;;;;;6.47;3.30;;;22.70;99.10;;;;;;5073189;28;20068;-62
2023/07/14 11:13:57;;;;;;;7.05;3.47;;;22.60;99.30;;;;;;5074396;28;20059;-62
2023/07/14 11:16:48;;;;;;;8.13;3.67;;;22.30;99.70;;;;;;5079682;28;20040;-62
2023/07/14 11:19:33;;;;;;;11.05;3.97;;;22.20;99.80;;;;;;5085137;28;20062;-62
2023/07/14 11:22:05;;;;;;;7.55;3.75;;;22.20;99.90;;;;;;5071388;28;20473;-62
2023/07/14 11:24:39;;;;;;;7.25;3.92;;;22.20;99.90;;;;;;5090106;28;20036;-62
2023/07/14 11:27:33;;;;;;;8.55;4.05;;;22.40;99.90;;;;;;5092285;28;20075;-62
2023/07/14 11:30:18;;;;;;;5.93;3.20;;;22.60;99.30;;;;;;5090669;28;20089;-62
2023/07/14 11:32:51;;;;;;;7.47;3.53;;;22.60;98.90;;;;;;5072889;28;20060;-62
2023/07/14 11:35:49;;;;;;;8.02;3.97;;;22.70;98.80;;;;;;5091081;28;20051;-62
2023/07/14 11:38:20;;;;;;;6.97;3.60;;;22.90;98.10;;;;;;5090036;28;20088;-63
2023/07/14 11:40:48;;;;;;;8.10;3.88;;;23.00;98.50;;;;;;5090860;28;20047;-62
2023/07/14 11:43:20;;;;;;;8.82;4.25;;;23.30;98.20;;;;;;5091490;28;20138;-62
2023/07/14 11:45:54;;;;;;;6.28;3.85;;;23.50;97.70;;;;;;5089703;28;20143;-63
2023/07/14 11:48:24;;;;;;;8.63;4.10;;;23.20;97.00;;;;;;5073391;28;20105;-62
2023/07/14 11:51:10;;;;;;;10.65;4.35;;;23.10;97.60;;;;;;5089370;28;20497;-63
2023/07/14 11:53:40;;;;;;;5.68;3.50;;;23.10;98.30;;;;;;5091431;28;20485;-63
2023/07/14 11:56:26;;;;;;;7.95;4.05;;;23.20;98.40;;;;;;5074015;28;20048;-63
2023/07/14 11:59:12;;;;;;;9.35;4.28;;;23.10;97.80;;;;;;5090734;28;20040;-63
2023/07/14 12:01:50;;;;;;;7.95;4.57;;;23.20;98.00;;;;;;5091984;28;20048;-62
2023/07/14 12:04:34;;;;;;;9.05;4.50;;;23.20;98.20;;;;;;5090829;28;20101;-62
2023/07/14 12:07:11;;;;;;;8.15;4.05;;;23.10;98.30;;;;;;5091179;28;20048;-62
2023/07/14 12:10:13;;;;;;;8.10;3.65;;;23.10;97.60;;;;;;5090415;28;20930;-62
2023/07/14 12:12:40;;;;;;;8.23;3.95;;;23.20;97.00;;;;;;5076893;28;20501;-62
2023/07/14 12:15:46;;;;;;;8.05;4.05;;;23.10;96.30;;;;;;5090666;28;20040;-62
2023/07/14 12:18:31;;;;;;;8.65;4.30;;;22.90;96.30;;;;;;5073688;28;20059;-62
2023/07/14 12:21:18;;;;;;;8.48;3.97;;;22.70;97.50;;;;;;5090975;28;20505;-62
2023/07/14 12:23:48;;;;;;;10.20;4.60;;;22.80;97.70;;;;;;5090323;28;20043;-62
2023/07/14 12:26:17;;;;;;;7.43;3.95;;;22.80;97.80;;;;;;5073394;28;20036;-62
2023/07/14 12:28:44;;;;;;;8.57;3.72;;;22.80;97.20;;;;;;5070996;28;20048;-62
2023/07/14 12:31:15;;;;;;;11.30;4.40;;;22.90;97.20;;;;;;5071953;28;20059;-62
2023/07/14 12:33:41;;;;;;;6.57;3.80;;;22.90;97.40;;;;;;5089590;28;20115;-62
2023/07/14 12:36:15;;;;;;;8.02;3.88;;;23.00;97.30;;;;;;5081600;28;20504;-63
2023/07/14 12:38:45;;;;;;;6.90;3.33;;;23.10;97.10;;;;;;5083021;28;20051;-62
2023/07/14 12:41:11;;;;;;;8.65;3.50;;;23.10;97.30;;;;;;5091029;28;20059;-63
2023/07/14 12:43:43;;;;;;;8.88;3.90;;;23.10;97.10;;;;;;5088747;28;20039;-62
2023/07/14 12:46:23;;;;;;;10.13;4.60;;;23.10;97.20;;;;;;5089712;28;20048;-62
2023/07/14 12:48:49;;;;;;;9.90;4.03;;;23.20;96.70;;;;;;5088594;28;20095;-62
2023/07/14 12:51:22;;;;;;;9.30;4.13;;;23.10;97.00;;;;;;5089235;28;20055;-62
2023/07/14 12:54:00;;;;;;;9.10;4.45;;;23.10;97.30;;;;;;5089762;28;20044;-62
2023/07/14 12:56:29;;;;;;;10.15;4.43;;;23.10;97.80;;;;;;5088501;28;20044;-62
2023/07/14 12:58:57;;;;;;;9.48;4.75;;;23.00;97.90;;;;;;5087860;28;20393;-62